createdAt,value
2018-12-30T00:00:27.383Z,1009.17
2018-12-30T00:01:27.393Z,1009.39
2018-12-30T00:02:27.344Z,1009.26
2018-12-30T00:03:27.384Z,1009.25
2018-12-30T00:04:27.315Z,1009.28
2018-12-30T00:05:27.284Z,1009.41
2018-12-30T00:06:27.280Z,1009.25
2018-12-30T00:07:27.241Z,1009.36
2018-12-30T00:08:27.238Z,1009.32
2018-12-30T00:09:27.213Z,1009.39
2018-12-30T00:10:27.205Z,1009.35
2018-12-30T00:11:27.175Z,1009.46
2018-12-30T00:12:27.149Z,1009.43
2018-12-30T00:13:27.142Z,1009.44
2018-12-30T00:14:27.152Z,1009.49
2018-12-30T00:15:27.095Z,1009.50
2018-12-30T00:16:27.087Z,1009.45
2018-12-30T00:17:27.061Z,1009.54
2018-12-30T00:18:27.051Z,1009.53
2018-12-30T00:19:27.025Z,1009.55
2018-12-30T00:20:27.004Z,1009.61
2018-12-30T00:21:26.980Z,1009.60
2018-12-30T00:22:26.975Z,1009.55
2018-12-30T00:23:26.944Z,1009.53
2018-12-30T00:24:26.999Z,1009.64
2018-12-30T00:25:26.920Z,1009.70
2018-12-30T00:26:26.916Z,1009.70
2018-12-30T00:27:26.873Z,1009.76
2018-12-30T00:28:26.850Z,1009.80
2018-12-30T00:29:26.830Z,1009.83
2018-12-30T00:30:26.961Z,1009.58
2018-12-30T00:31:26.808Z,1009.78
2018-12-30T00:32:26.782Z,1009.98
2018-12-30T00:33:26.765Z,1009.94
2018-12-30T00:34:26.737Z,1009.99
2018-12-30T00:35:26.712Z,1010.04
2018-12-30T00:36:26.733Z,1009.85
2018-12-30T00:37:26.689Z,1009.91
2018-12-30T00:38:26.669Z,1009.99
2018-12-30T00:39:26.636Z,1010.11
2018-12-30T00:40:26.639Z,1010.31
2018-12-30T00:41:26.639Z,1010.18
2018-12-30T00:42:26.588Z,1010.23
2018-12-30T00:43:26.560Z,1010.35
2018-12-30T00:44:26.607Z,1010.32
2018-12-30T00:45:26.535Z,1010.43
2018-12-30T00:46:26.546Z,1010.37
2018-12-30T00:47:26.499Z,1010.46
2018-12-30T00:48:26.470Z,1010.47
2018-12-30T00:49:26.467Z,1010.40
2018-12-30T00:50:26.440Z,1010.51
2018-12-30T00:51:26.420Z,1010.64
2018-12-30T00:52:26.406Z,1010.34
2018-12-30T00:53:26.382Z,1010.62
2018-12-30T00:54:26.370Z,1010.52
2018-12-30T00:55:26.336Z,1010.63
2018-12-30T00:56:26.331Z,1010.76
2018-12-30T00:57:26.310Z,1010.70
2018-12-30T00:58:26.291Z,1010.67
2018-12-30T00:59:26.300Z,1010.71
2018-12-30T01:00:26.258Z,1010.79
2018-12-30T01:01:26.220Z,1010.84
2018-12-30T01:02:26.228Z,1010.84
2018-12-30T01:03:26.179Z,1010.86
2018-12-30T01:04:26.170Z,1010.95
2018-12-30T01:05:26.157Z,1011.01
2018-12-30T01:06:26.131Z,1010.98
2018-12-30T01:07:26.133Z,1011.01
2018-12-30T01:08:26.100Z,1011.05
2018-12-30T01:09:26.086Z,1010.99
2018-12-30T01:10:26.057Z,1011.04
2018-12-30T01:11:26.041Z,1010.98
2018-12-30T01:12:26.022Z,1011.04
2018-12-30T01:13:25.994Z,1011.12
2018-12-30T01:14:26.131Z,1011.02
2018-12-30T01:15:25.964Z,1011.20
2018-12-30T01:16:25.953Z,1011.21
2018-12-30T01:17:25.927Z,1011.23
2018-12-30T01:18:25.909Z,1011.33
2018-12-30T01:19:25.881Z,1011.34
2018-12-30T01:20:26.009Z,1011.28
2018-12-30T01:21:25.849Z,1011.25
2018-12-30T01:22:25.829Z,1011.39
2018-12-30T01:23:25.806Z,1011.30
2018-12-30T01:24:25.805Z,1011.27
2018-12-30T01:25:25.771Z,1011.39
2018-12-30T01:26:25.880Z,1011.40
2018-12-30T01:27:25.723Z,1011.42
2018-12-30T01:28:25.707Z,1011.52
2018-12-30T01:29:25.700Z,1011.35
2018-12-30T01:30:25.683Z,1011.42
2018-12-30T01:31:25.648Z,1011.51
2018-12-30T01:32:25.643Z,1011.63
2018-12-30T01:33:25.633Z,1011.64
2018-12-30T01:34:25.610Z,1011.68
2018-12-30T01:35:25.581Z,1011.64
2018-12-30T01:36:25.572Z,1011.79
2018-12-30T01:37:25.576Z,1011.71
2018-12-30T01:38:25.529Z,1011.77
2018-12-30T01:39:25.510Z,1011.67
2018-12-30T01:40:25.485Z,1011.75
2018-12-30T01:41:25.499Z,1011.89
2018-12-30T01:42:25.477Z,1011.82
2018-12-30T01:43:25.427Z,1011.99
2018-12-30T01:44:25.412Z,1011.95
2018-12-30T01:45:25.384Z,1011.97
2018-12-30T01:46:25.370Z,1011.89
2018-12-30T01:47:25.384Z,1012.01
2018-12-30T01:48:25.494Z,1012.04
2018-12-30T01:49:25.309Z,1012.02
2018-12-30T01:50:25.299Z,1012.08
2018-12-30T01:51:32.828Z,1012.08
2018-12-30T01:52:25.269Z,1012.14
2018-12-30T01:53:25.238Z,1012.13
2018-12-30T01:54:25.240Z,1012.07
2018-12-30T01:55:25.197Z,1012.18
2018-12-30T01:56:25.177Z,1012.09
2018-12-30T01:57:25.243Z,1012.18
2018-12-30T01:58:25.158Z,1012.20
2018-12-30T01:59:25.170Z,1012.22
2018-12-30T02:00:25.107Z,1012.24
2018-12-30T02:01:25.097Z,1012.18
2018-12-30T02:02:25.069Z,1012.21
2018-12-30T02:03:25.044Z,1012.18
2018-12-30T02:04:25.072Z,1012.31
2018-12-30T02:05:25.018Z,1012.36
2018-12-30T02:06:25.024Z,1012.31
2018-12-30T02:07:24.978Z,1012.36
2018-12-30T02:08:24.962Z,1012.42
2018-12-30T02:09:24.939Z,1012.40
2018-12-30T02:10:24.922Z,1012.40
2018-12-30T02:11:24.948Z,1012.48
2018-12-30T02:12:24.888Z,1012.43
2018-12-30T02:13:24.877Z,1012.35
2018-12-30T02:14:24.856Z,1012.46
2018-12-30T02:15:24.841Z,1012.54
2018-12-30T02:16:24.947Z,1012.52
2018-12-30T02:17:24.782Z,1012.49
2018-12-30T02:18:24.779Z,1012.49
2018-12-30T02:19:24.756Z,1012.44
2018-12-30T02:20:24.739Z,1012.56
2018-12-30T02:21:24.728Z,1012.60
2018-12-30T02:22:24.705Z,1012.63
2018-12-30T02:23:24.677Z,1012.52
2018-12-30T02:24:24.657Z,1012.76
2018-12-30T02:25:24.652Z,1012.72
2018-12-30T02:26:24.623Z,1012.59
2018-12-30T02:27:24.620Z,1012.61
2018-12-30T02:28:24.569Z,1012.65
2018-12-30T02:29:24.560Z,1012.71
2018-12-30T02:30:24.539Z,1012.56
2018-12-30T02:31:24.524Z,1012.67
2018-12-30T02:32:24.529Z,1012.69
2018-12-30T02:33:24.525Z,1012.59
2018-12-30T02:34:24.457Z,1012.73
2018-12-30T02:35:24.467Z,1012.75
2018-12-30T02:36:24.431Z,1012.72
2018-12-30T02:37:24.404Z,1012.66
2018-12-30T02:38:24.422Z,1012.67
2018-12-30T02:39:24.362Z,1012.74
2018-12-30T02:40:24.355Z,1012.77
2018-12-30T02:41:24.336Z,1012.78
2018-12-30T02:42:24.309Z,1012.80
2018-12-30T02:43:24.345Z,1012.76
2018-12-30T02:44:24.269Z,1012.78
2018-12-30T02:45:24.261Z,1012.88
2018-12-30T02:46:24.234Z,1012.88
2018-12-30T02:47:24.232Z,1012.89
2018-12-30T02:48:24.198Z,1012.89
2018-12-30T02:49:24.194Z,1012.93
2018-12-30T02:50:24.165Z,1012.87
2018-12-30T02:51:24.148Z,1013.00
2018-12-30T02:52:24.135Z,1012.94
2018-12-30T02:53:24.109Z,1013.00
2018-12-30T02:54:24.165Z,1013.05
2018-12-30T02:55:24.075Z,1013.11
2018-12-30T02:56:24.058Z,1013.13
2018-12-30T02:57:24.050Z,1013.18
2018-12-30T02:58:24.016Z,1013.18
2018-12-30T02:59:24.003Z,1013.22
2018-12-30T03:00:23.999Z,1013.21
2018-12-30T03:01:23.963Z,1013.28
2018-12-30T03:02:23.957Z,1013.31
2018-12-30T03:03:23.919Z,1013.29
2018-12-30T03:04:23.897Z,1013.30
2018-12-30T03:05:23.915Z,1013.33
2018-12-30T03:06:23.858Z,1013.28
2018-12-30T03:07:23.834Z,1013.34
2018-12-30T03:08:23.853Z,1013.39
2018-12-30T03:09:23.803Z,1013.40
2018-12-30T03:10:23.826Z,1013.45
2018-12-30T03:11:23.779Z,1013.45
2018-12-30T03:12:23.747Z,1013.49
2018-12-30T03:13:23.725Z,1013.50
2018-12-30T03:14:23.700Z,1013.46
2018-12-30T03:15:23.683Z,1013.53
2018-12-30T03:16:23.740Z,1013.47
2018-12-30T03:17:23.652Z,1013.51
2018-12-30T03:18:23.634Z,1013.42
2018-12-30T03:19:23.614Z,1013.41
2018-12-30T03:20:23.602Z,1013.49
2018-12-30T03:21:23.571Z,1013.37
2018-12-30T03:22:23.614Z,1013.38
2018-12-30T03:23:23.535Z,1013.40
2018-12-30T03:24:23.523Z,1013.38
2018-12-30T03:25:23.511Z,1013.46
2018-12-30T03:26:23.473Z,1013.47
2018-12-30T03:27:23.460Z,1013.49
2018-12-30T03:28:23.474Z,1013.44
2018-12-30T03:29:23.423Z,1013.48
2018-12-30T03:30:23.413Z,1013.47
2018-12-30T03:31:23.384Z,1013.30
2018-12-30T03:32:23.374Z,1013.46
2018-12-30T03:33:23.344Z,1013.57
2018-12-30T03:34:23.330Z,1013.59
2018-12-30T03:35:23.314Z,1013.62
2018-12-30T03:36:23.300Z,1013.68
2018-12-30T03:37:23.270Z,1013.62
2018-12-30T03:38:23.262Z,1013.65
2018-12-30T03:39:23.266Z,1013.59
2018-12-30T03:40:23.214Z,1013.60
2018-12-30T03:41:23.197Z,1013.57
2018-12-30T03:42:23.174Z,1013.60
2018-12-30T03:43:23.164Z,1013.54
2018-12-30T03:44:23.347Z,1013.67
2018-12-30T03:45:23.136Z,1013.61
2018-12-30T03:46:23.102Z,1013.70
2018-12-30T03:47:23.087Z,1013.79
2018-12-30T03:48:23.067Z,1013.74
2018-12-30T03:49:23.066Z,1013.89
2018-12-30T03:50:23.028Z,1013.84
2018-12-30T03:51:23.015Z,1013.79
2018-12-30T03:52:22.998Z,1013.78
2018-12-30T03:53:22.962Z,1013.79
2018-12-30T03:54:22.963Z,1013.71
2018-12-30T03:55:22.929Z,1013.84
2018-12-30T03:56:22.904Z,1013.85
2018-12-30T03:57:22.891Z,1013.95
2018-12-30T03:58:22.871Z,1013.90
2018-12-30T03:59:22.914Z,1013.81
2018-12-30T04:00:22.837Z,1013.73
2018-12-30T04:01:22.858Z,1013.93
2018-12-30T04:02:22.852Z,1013.90
2018-12-30T04:03:22.786Z,1014.01
2018-12-30T04:04:22.753Z,1013.99
2018-12-30T04:05:22.744Z,1014.04
2018-12-30T04:06:22.715Z,1014.01
2018-12-30T04:07:22.713Z,1014.02
2018-12-30T04:08:22.728Z,1014.03
2018-12-30T04:09:22.675Z,1014.04
2018-12-30T04:10:22.643Z,1014.08
2018-12-30T04:11:22.636Z,1014.13
2018-12-30T04:12:22.620Z,1013.97
2018-12-30T04:13:22.645Z,1014.05
2018-12-30T04:14:22.566Z,1014.10
2018-12-30T04:15:22.557Z,1014.05
2018-12-30T04:16:22.533Z,1014.09
2018-12-30T04:17:22.513Z,1014.14
2018-12-30T04:18:22.494Z,1014.11
2018-12-30T04:19:22.502Z,1014.15
2018-12-30T04:20:22.454Z,1014.16
2018-12-30T04:21:22.437Z,1014.03
2018-12-30T04:22:22.426Z,1014.15
2018-12-30T04:23:22.424Z,1014.16
2018-12-30T04:24:22.427Z,1014.19
2018-12-30T04:25:22.359Z,1014.21
2018-12-30T04:26:22.397Z,1014.18
2018-12-30T04:27:22.331Z,1014.25
2018-12-30T04:28:22.311Z,1014.26
2018-12-30T04:29:22.284Z,1014.30
2018-12-30T04:30:22.306Z,1014.29
2018-12-30T04:31:22.251Z,1014.29
2018-12-30T04:32:22.237Z,1014.23
2018-12-30T04:33:22.251Z,1014.30
2018-12-30T04:34:22.200Z,1014.33
2018-12-30T04:35:22.171Z,1014.24
2018-12-30T04:36:22.163Z,1014.35
2018-12-30T04:37:22.137Z,1014.36
2018-12-30T04:38:22.114Z,1014.40
2018-12-30T04:39:22.093Z,1014.45
2018-12-30T04:40:22.083Z,1014.38
2018-12-30T04:41:22.071Z,1014.43
2018-12-30T04:42:22.052Z,1014.48
2018-12-30T04:43:22.022Z,1014.51
2018-12-30T04:44:22.004Z,1014.50
2018-12-30T04:45:22.035Z,1014.58
2018-12-30T04:46:21.978Z,1014.55
2018-12-30T04:47:21.945Z,1014.57
2018-12-30T04:48:21.930Z,1014.62
2018-12-30T04:49:21.926Z,1014.65
2018-12-30T04:50:21.899Z,1014.68
2018-12-30T04:51:21.894Z,1014.69
2018-12-30T04:52:25.744Z,1014.69
2018-12-30T04:53:21.883Z,1014.72
2018-12-30T04:54:21.818Z,1014.76
2018-12-30T04:55:21.807Z,1014.82
2018-12-30T04:56:21.792Z,1014.79
2018-12-30T04:57:21.771Z,1014.79
2018-12-30T04:58:21.756Z,1014.78
2018-12-30T04:59:21.732Z,1014.74
2018-12-30T05:00:21.745Z,1014.67
2018-12-30T05:01:21.688Z,1014.78
2018-12-30T05:02:21.675Z,1014.85
2018-12-30T05:03:21.694Z,1014.81
2018-12-30T05:04:21.852Z,1014.88
2018-12-30T05:05:23.260Z,1014.95
2018-12-30T05:06:21.588Z,1014.95
2018-12-30T05:07:21.579Z,1014.95
2018-12-30T05:08:21.606Z,1015.13
2018-12-30T05:09:21.550Z,1015.09
2018-12-30T05:10:21.522Z,1015.11
2018-12-30T05:11:21.496Z,1015.16
2018-12-30T05:12:21.494Z,1015.18
2018-12-30T05:13:21.502Z,1015.16
2018-12-30T05:14:21.437Z,1015.16
2018-12-30T05:15:21.425Z,1015.14
2018-12-30T05:16:21.415Z,1015.22
2018-12-30T05:17:21.416Z,1015.20
2018-12-30T05:18:21.412Z,1015.19
2018-12-30T05:19:21.345Z,1015.21
2018-12-30T05:20:21.331Z,1015.23
2018-12-30T05:21:21.308Z,1015.21
2018-12-30T05:22:21.298Z,1015.22
2018-12-30T05:23:21.317Z,1015.17
2018-12-30T05:24:21.252Z,1015.18
2018-12-30T05:25:21.272Z,1015.00
2018-12-30T05:26:21.229Z,1015.16
2018-12-30T05:27:21.197Z,1015.19
2018-12-30T05:28:21.321Z,1015.16
2018-12-30T05:29:21.167Z,1015.21
2018-12-30T05:30:21.156Z,1015.25
2018-12-30T05:31:21.119Z,1015.19
2018-12-30T05:32:21.109Z,1015.28
2018-12-30T05:33:21.096Z,1015.26
2018-12-30T05:34:21.520Z,1015.30
2018-12-30T05:35:21.046Z,1015.27
2018-12-30T05:36:21.021Z,1015.33
2018-12-30T05:37:21.004Z,1015.27
2018-12-30T05:38:20.989Z,1015.29
2018-12-30T05:39:20.973Z,1015.30
2018-12-30T05:40:21.047Z,1015.33
2018-12-30T05:41:20.939Z,1015.38
2018-12-30T05:42:20.935Z,1015.37
2018-12-30T05:43:20.903Z,1015.45
2018-12-30T05:44:20.883Z,1015.47
2018-12-30T05:45:20.859Z,1015.46
2018-12-30T05:46:20.841Z,1015.51
2018-12-30T05:47:20.973Z,1015.51
2018-12-30T05:48:20.806Z,1015.50
2018-12-30T05:49:20.796Z,1015.51
2018-12-30T05:50:20.777Z,1015.53
2018-12-30T05:51:20.741Z,1015.56
2018-12-30T05:52:20.735Z,1015.62
2018-12-30T05:53:20.738Z,1015.67
2018-12-30T05:54:20.697Z,1015.66
2018-12-30T05:55:20.694Z,1015.63
2018-12-30T05:56:20.661Z,1015.72
2018-12-30T05:57:20.628Z,1015.70
2018-12-30T05:58:20.616Z,1015.63
2018-12-30T05:59:20.603Z,1015.61
2018-12-30T06:00:20.591Z,1015.64
2018-12-30T06:01:20.707Z,1015.72
2018-12-30T06:02:20.545Z,1015.76
2018-12-30T06:03:20.517Z,1015.74
2018-12-30T06:04:20.506Z,1015.63
2018-12-30T06:05:20.489Z,1015.66
2018-12-30T06:06:20.549Z,1015.68
2018-12-30T06:07:20.442Z,1015.61
2018-12-30T06:08:20.427Z,1015.65
2018-12-30T06:09:20.403Z,1015.66
2018-12-30T06:10:20.379Z,1015.61
2018-12-30T06:11:20.371Z,1015.68
2018-12-30T06:12:20.400Z,1015.67
2018-12-30T06:13:20.338Z,1015.66
2018-12-30T06:14:20.314Z,1015.75
2018-12-30T06:15:20.305Z,1015.73
2018-12-30T06:16:20.283Z,1015.79
2018-12-30T06:17:20.274Z,1015.81
2018-12-30T06:18:20.306Z,1015.75
2018-12-30T06:19:20.225Z,1015.85
2018-12-30T06:20:20.203Z,1015.83
2018-12-30T06:21:20.190Z,1015.86
2018-12-30T06:22:20.171Z,1015.87
2018-12-30T06:23:20.139Z,1015.85
2018-12-30T06:24:20.204Z,1015.85
2018-12-30T06:25:20.117Z,1015.86
2018-12-30T06:26:20.094Z,1015.82
2018-12-30T06:27:20.073Z,1015.90
2018-12-30T06:28:20.043Z,1015.90
2018-12-30T06:29:20.039Z,1015.89
2018-12-30T06:30:20.074Z,1015.85
2018-12-30T06:31:19.991Z,1015.82
2018-12-30T06:32:19.963Z,1015.89
2018-12-30T06:33:19.960Z,1015.95
2018-12-30T06:34:20.065Z,1015.98
2018-12-30T06:35:19.909Z,1015.96
2018-12-30T06:36:19.906Z,1016.00
2018-12-30T06:37:19.873Z,1015.86
2018-12-30T06:38:19.863Z,1015.98
2018-12-30T06:39:19.852Z,1015.96
2018-12-30T06:40:19.819Z,1015.94
2018-12-30T06:41:19.822Z,1015.96
2018-12-30T06:42:19.789Z,1016.02
2018-12-30T06:43:19.760Z,1016.06
2018-12-30T06:44:19.745Z,1016.08
2018-12-30T06:45:19.734Z,1016.10
2018-12-30T06:46:19.867Z,1016.03
2018-12-30T06:47:19.693Z,1016.04
2018-12-30T06:48:19.687Z,1016.06
2018-12-30T06:49:19.665Z,1016.06
2018-12-30T06:50:19.627Z,1016.10
2018-12-30T06:51:19.618Z,1016.13
2018-12-30T06:52:19.646Z,1016.12
2018-12-30T06:53:19.586Z,1016.04
2018-12-30T06:54:19.554Z,1016.06
2018-12-30T06:55:19.550Z,1016.07
2018-12-30T06:56:19.536Z,1016.02
2018-12-30T06:57:19.511Z,1016.08
2018-12-30T06:58:19.492Z,1016.09
2018-12-30T06:59:19.477Z,1016.10
2018-12-30T07:00:19.451Z,1016.07
2018-12-30T07:01:19.425Z,1016.06
2018-12-30T07:02:19.404Z,1016.07
2018-12-30T07:03:19.415Z,1016.12
2018-12-30T07:04:19.655Z,1016.09
2018-12-30T07:05:19.359Z,1016.14
2018-12-30T07:06:19.331Z,1016.14
2018-12-30T07:07:19.360Z,1016.09
2018-12-30T07:08:19.301Z,1016.08
2018-12-30T07:09:19.348Z,1016.05
2018-12-30T07:10:19.255Z,1016.07
2018-12-30T07:11:19.256Z,1016.12
2018-12-30T07:12:19.216Z,1016.10
2018-12-30T07:13:19.216Z,1016.03
2018-12-30T07:14:19.193Z,1016.02
2018-12-30T07:15:19.200Z,1015.98
2018-12-30T07:16:19.155Z,1016.07
2018-12-30T07:17:19.139Z,1016.08
2018-12-30T07:18:19.128Z,1016.04
2018-12-30T07:19:19.096Z,1016.09
2018-12-30T07:20:19.219Z,1016.12
2018-12-30T07:21:19.056Z,1016.17
2018-12-30T07:22:19.026Z,1016.17
2018-12-30T07:23:19.028Z,1016.14
2018-12-30T07:24:19.002Z,1016.15
2018-12-30T07:25:18.979Z,1016.10
2018-12-30T07:26:18.995Z,1016.15
2018-12-30T07:27:18.940Z,1016.20
2018-12-30T07:28:18.943Z,1016.23
2018-12-30T07:29:18.903Z,1016.22
2018-12-30T07:30:18.889Z,1016.27
2018-12-30T07:31:19.003Z,1016.26
2018-12-30T07:32:18.859Z,1016.32
2018-12-30T07:33:18.829Z,1016.30
2018-12-30T07:34:18.822Z,1016.25
2018-12-30T07:35:18.795Z,1016.30
2018-12-30T07:36:18.777Z,1016.32
2018-12-30T07:37:18.777Z,1016.26
2018-12-30T07:38:18.730Z,1016.27
2018-12-30T07:39:18.709Z,1016.23
2018-12-30T07:40:18.699Z,1016.24
2018-12-30T07:41:18.674Z,1016.24
2018-12-30T07:42:18.692Z,1016.30
2018-12-30T07:43:18.636Z,1016.37
2018-12-30T07:44:18.634Z,1016.38
2018-12-30T07:45:18.594Z,1016.40
2018-12-30T07:46:18.589Z,1016.44
2018-12-30T07:47:18.697Z,1016.41
2018-12-30T07:48:18.558Z,1016.42
2018-12-30T07:49:18.521Z,1016.35
2018-12-30T07:50:18.521Z,1016.37
2018-12-30T07:51:18.483Z,1016.41
2018-12-30T07:52:18.487Z,1016.40
2018-12-30T07:53:18.459Z,1016.39
2018-12-30T07:54:18.444Z,1016.41
2018-12-30T07:55:18.424Z,1016.43
2018-12-30T07:56:18.414Z,1016.43
2018-12-30T07:57:18.382Z,1016.41
2018-12-30T07:58:18.361Z,1016.41
2018-12-30T07:59:18.350Z,1016.40
2018-12-30T08:00:18.362Z,1016.54
2018-12-30T08:01:18.323Z,1016.49
2018-12-30T08:02:18.291Z,1016.44
2018-12-30T08:03:18.272Z,1016.48
2018-12-30T08:04:18.635Z,1016.52
2018-12-30T08:05:18.235Z,1016.53
2018-12-30T08:06:18.224Z,1016.49
2018-12-30T08:07:18.204Z,1016.42
2018-12-30T08:08:18.180Z,1016.49
2018-12-30T08:09:18.159Z,1016.49
2018-12-30T08:10:18.244Z,1016.46
2018-12-30T08:11:18.123Z,1016.55
2018-12-30T08:12:18.113Z,1016.57
2018-12-30T08:13:18.083Z,1016.55
2018-12-30T08:14:18.069Z,1016.52
2018-12-30T08:15:18.042Z,1016.56
2018-12-30T08:16:18.060Z,1016.50
2018-12-30T08:17:18.021Z,1016.50
2018-12-30T08:18:17.989Z,1016.56
2018-12-30T08:19:17.983Z,1016.56
2018-12-30T08:20:17.951Z,1016.58
2018-12-30T08:21:17.971Z,1016.59
2018-12-30T08:22:17.911Z,1016.59
2018-12-30T08:23:21.645Z,1016.60
2018-12-30T08:24:17.888Z,1016.53
2018-12-30T08:25:17.894Z,1016.56
2018-12-30T08:26:17.847Z,1016.64
2018-12-30T08:27:17.834Z,1016.66
2018-12-30T08:28:24.810Z,1016.62
2018-12-30T08:29:17.799Z,1016.61
2018-12-30T08:30:17.910Z,1016.64
2018-12-30T08:31:17.751Z,1016.62
2018-12-30T08:32:17.741Z,1016.64
2018-12-30T08:33:17.707Z,1016.63
2018-12-30T08:34:17.868Z,1016.67
2018-12-30T08:35:17.682Z,1016.73
2018-12-30T08:36:17.692Z,1016.71
2018-12-30T08:37:17.629Z,1016.75
2018-12-30T08:38:17.627Z,1016.71
2018-12-30T08:39:17.592Z,1016.73
2018-12-30T08:40:17.575Z,1016.74
2018-12-30T08:41:17.605Z,1016.72
2018-12-30T08:42:17.559Z,1016.73
2018-12-30T08:43:17.522Z,1016.68
2018-12-30T08:44:17.520Z,1016.75
2018-12-30T08:45:17.481Z,1016.73
2018-12-30T08:46:17.513Z,1016.76
2018-12-30T08:47:17.476Z,1016.71
2018-12-30T08:48:17.436Z,1016.78
2018-12-30T08:49:17.425Z,1016.81
2018-12-30T08:50:17.399Z,1016.82
2018-12-30T08:51:17.415Z,1016.78
2018-12-30T08:52:17.415Z,1016.84
2018-12-30T08:53:17.337Z,1016.83
2018-12-30T08:54:17.321Z,1016.84
2018-12-30T08:55:17.297Z,1016.84
2018-12-30T08:56:17.300Z,1016.91
2018-12-30T08:57:17.280Z,1016.88
2018-12-30T08:58:17.265Z,1016.85
2018-12-30T08:59:17.234Z,1016.86
2018-12-30T09:00:17.217Z,1016.85
2018-12-30T09:01:17.205Z,1016.91
2018-12-30T09:02:17.178Z,1016.93
2018-12-30T09:03:17.187Z,1016.95
2018-12-30T09:04:17.159Z,1016.91
2018-12-30T09:05:17.129Z,1016.96
2018-12-30T09:06:17.115Z,1016.93
2018-12-30T09:07:17.080Z,1016.85
2018-12-30T09:08:17.112Z,1016.79
2018-12-30T09:09:17.051Z,1016.87
2018-12-30T09:10:17.047Z,1016.89
2018-12-30T09:11:17.015Z,1016.88
2018-12-30T09:12:16.997Z,1016.86
2018-12-30T09:13:16.981Z,1016.90
2018-12-30T09:14:17.097Z,1016.93
2018-12-30T09:15:16.950Z,1016.89
2018-12-30T09:16:16.919Z,1016.87
2018-12-30T09:17:18.355Z,1016.82
2018-12-30T09:18:16.888Z,1016.75
2018-12-30T09:19:16.877Z,1016.85
2018-12-30T09:20:16.858Z,1016.88
2018-12-30T09:21:16.830Z,1016.87
2018-12-30T09:22:16.808Z,1016.91
2018-12-30T09:23:16.810Z,1016.94
2018-12-30T09:24:16.780Z,1016.96
2018-12-30T09:25:16.769Z,1016.88
2018-12-30T09:26:16.748Z,1016.81
2018-12-30T09:27:16.779Z,1016.84
2018-12-30T09:28:16.709Z,1016.93
2018-12-30T09:29:16.686Z,1016.87
2018-12-30T09:30:16.678Z,1016.85
2018-12-30T09:31:16.649Z,1016.79
2018-12-30T09:32:16.638Z,1016.77
2018-12-30T09:33:16.647Z,1016.73
2018-12-30T09:34:16.596Z,1016.76
2018-12-30T09:35:16.581Z,1016.75
2018-12-30T09:36:16.567Z,1016.80
2018-12-30T09:37:16.678Z,1016.79
2018-12-30T09:38:16.525Z,1016.81
2018-12-30T09:39:16.520Z,1016.87
2018-12-30T09:40:16.501Z,1016.92
2018-12-30T09:41:16.475Z,1016.94
2018-12-30T09:42:16.454Z,1016.89
2018-12-30T09:43:16.452Z,1016.88
2018-12-30T09:44:16.427Z,1016.92
2018-12-30T09:45:16.415Z,1016.92
2018-12-30T09:46:16.390Z,1016.96
2018-12-30T09:47:16.368Z,1016.96
2018-12-30T09:48:16.345Z,1016.98
2018-12-30T09:49:16.370Z,1016.96
2018-12-30T09:50:16.323Z,1016.99
2018-12-30T09:51:16.288Z,1017.00
2018-12-30T09:52:16.284Z,1017.04
2018-12-30T09:53:16.255Z,1017.05
2018-12-30T09:54:16.246Z,1017.04
2018-12-30T09:55:16.229Z,1017.06
2018-12-30T09:56:16.197Z,1017.13
2018-12-30T09:57:16.266Z,1017.07
2018-12-30T09:58:16.161Z,1017.10
2018-12-30T09:59:16.152Z,1017.08
2018-12-30T10:00:16.165Z,1017.06
2018-12-30T10:01:16.115Z,1017.05
2018-12-30T10:02:16.096Z,1017.09
2018-12-30T10:03:16.076Z,1017.08
2018-12-30T10:04:16.065Z,1017.08
2018-12-30T10:05:16.114Z,1017.08
2018-12-30T10:06:16.024Z,1017.08
2018-12-30T10:07:16.027Z,1017.12
2018-12-30T10:08:16.009Z,1017.09
2018-12-30T10:09:15.975Z,1017.15
2018-12-30T10:10:15.951Z,1017.09
2018-12-30T10:11:15.965Z,1017.14
2018-12-30T10:12:16.235Z,1017.15
2018-12-30T10:13:16.051Z,1017.17
2018-12-30T10:14:16.120Z,1017.14
2018-12-30T10:15:16.024Z,1017.20
2018-12-30T10:16:15.858Z,1017.17
2018-12-30T10:17:15.971Z,1017.20
2018-12-30T10:18:15.812Z,1017.14
2018-12-30T10:19:15.795Z,1017.11
2018-12-30T10:20:15.770Z,1017.09
2018-12-30T10:21:15.761Z,1017.01
2018-12-30T10:22:15.748Z,1017.00
2018-12-30T10:23:15.742Z,1017.04
2018-12-30T10:24:15.698Z,1017.07
2018-12-30T10:25:15.679Z,1017.10
2018-12-30T10:26:15.671Z,1017.10
2018-12-30T10:27:15.718Z,1017.12
2018-12-30T10:28:15.641Z,1017.13
2018-12-30T10:29:15.628Z,1017.16
2018-12-30T10:30:15.600Z,1017.14
2018-12-30T10:31:15.582Z,1017.13
2018-12-30T10:32:15.571Z,1017.07
2018-12-30T10:33:15.556Z,1017.04
2018-12-30T10:34:15.531Z,1017.06
2018-12-30T10:35:15.508Z,1017.06
2018-12-30T10:36:15.493Z,1017.10
2018-12-30T10:37:15.471Z,1016.98
2018-12-30T10:38:15.501Z,1017.03
2018-12-30T10:39:15.581Z,1017.07
2018-12-30T10:40:15.419Z,1017.10
2018-12-30T10:41:15.409Z,1017.07
2018-12-30T10:42:15.381Z,1017.08
2018-12-30T10:43:15.373Z,1017.09
2018-12-30T10:44:15.367Z,1017.08
2018-12-30T10:45:15.338Z,1017.06
2018-12-30T10:46:15.317Z,1016.97
2018-12-30T10:47:15.288Z,1017.05
2018-12-30T10:48:15.275Z,1016.97
2018-12-30T10:49:15.257Z,1016.93
2018-12-30T10:50:15.403Z,1016.91
2018-12-30T10:51:15.239Z,1016.99
2018-12-30T10:52:15.198Z,1016.98
2018-12-30T10:53:15.180Z,1017.06
2018-12-30T10:54:15.161Z,1017.02
2018-12-30T10:55:15.148Z,1016.97
2018-12-30T10:56:15.175Z,1016.96
2018-12-30T10:57:15.123Z,1017.00
2018-12-30T10:58:15.128Z,1016.99
2018-12-30T10:59:15.088Z,1017.00
2018-12-30T11:00:15.095Z,1016.85
2018-12-30T11:01:15.049Z,1016.95
2018-12-30T11:02:15.019Z,1016.98
2018-12-30T11:03:15.006Z,1017.04
2018-12-30T11:04:14.980Z,1017.02
2018-12-30T11:05:15.020Z,1017.01
2018-12-30T11:06:14.996Z,1017.05
2018-12-30T11:07:14.927Z,1017.01
2018-12-30T11:08:14.990Z,1017.08
2018-12-30T11:09:14.899Z,1017.03
2018-12-30T11:10:14.873Z,1017.07
2018-12-30T11:11:14.870Z,1017.11
2018-12-30T11:12:14.853Z,1017.07
2018-12-30T11:13:14.832Z,1017.07
2018-12-30T11:14:14.853Z,1017.05
2018-12-30T11:15:14.785Z,1016.99
2018-12-30T11:16:14.804Z,1017.05
2018-12-30T11:17:14.758Z,1017.05
2018-12-30T11:18:14.743Z,1017.01
2018-12-30T11:19:16.375Z,1017.07
2018-12-30T11:20:14.779Z,1017.09
2018-12-30T11:21:14.701Z,1017.06
2018-12-30T11:22:14.677Z,1017.07
2018-12-30T11:23:14.646Z,1017.11
2018-12-30T11:24:14.649Z,1017.01
2018-12-30T11:25:14.620Z,1017.03
2018-12-30T11:26:14.589Z,1017.06
2018-12-30T11:27:14.590Z,1017.01
2018-12-30T11:28:14.570Z,1017.03
2018-12-30T11:29:14.582Z,1017.03
2018-12-30T11:30:14.528Z,1016.89
2018-12-30T11:31:14.506Z,1017.00
2018-12-30T11:32:14.498Z,1017.01
2018-12-30T11:33:14.470Z,1017.02
2018-12-30T11:34:14.499Z,1017.01
2018-12-30T11:35:14.444Z,1017.07
2018-12-30T11:36:14.418Z,1017.07
2018-12-30T11:37:14.409Z,1017.10
2018-12-30T11:38:14.383Z,1017.10
2018-12-30T11:39:14.416Z,1017.13
2018-12-30T11:40:14.356Z,1017.08
2018-12-30T11:41:14.325Z,1017.01
2018-12-30T11:42:14.311Z,1016.94
2018-12-30T11:43:14.303Z,1016.96
2018-12-30T11:44:14.317Z,1016.80
2018-12-30T11:45:14.257Z,1016.93
2018-12-30T11:46:14.274Z,1016.96
2018-12-30T11:47:14.233Z,1016.99
2018-12-30T11:48:14.200Z,1016.90
2018-12-30T11:49:14.194Z,1016.91
2018-12-30T11:50:14.183Z,1016.86
2018-12-30T11:51:14.150Z,1016.83
2018-12-30T11:52:14.132Z,1016.90
2018-12-30T11:53:14.111Z,1016.92
2018-12-30T11:54:16.621Z,1016.91
2018-12-30T11:55:14.201Z,1016.90
2018-12-30T11:56:14.101Z,1016.88
2018-12-30T11:57:14.043Z,1016.89
2018-12-30T11:58:14.033Z,1016.90
2018-12-30T11:59:14.011Z,1016.91
2018-12-30T12:00:14.029Z,1016.93
2018-12-30T12:01:14.010Z,1016.85
2018-12-30T12:02:13.948Z,1016.92
2018-12-30T12:03:13.950Z,1016.91
2018-12-30T12:04:13.923Z,1016.90
2018-12-30T12:05:13.899Z,1016.95